createdAt,value
2022-11-27T00:01:12.948Z,10.10
2022-11-27T00:03:41.653Z,7.83
2022-11-27T00:06:13.782Z,13.23
2022-11-27T00:08:41.893Z,9.17
2022-11-27T00:11:11.726Z,9.67
2022-11-27T00:13:41.321Z,8.87
2022-11-27T00:16:10.101Z,8.97
2022-11-27T00:18:38.611Z,9.13
2022-11-27T00:21:08.686Z,9.87
2022-11-27T00:23:37.086Z,11.17
2022-11-27T00:26:05.785Z,9.33
2022-11-27T00:28:34.769Z,9.60
2022-11-27T00:31:06.748Z,10.53
2022-11-27T00:33:34.862Z,8.63
2022-11-27T00:36:03.487Z,9.20
2022-11-27T00:38:35.865Z,11.10
2022-11-27T00:41:08.173Z,8.30
2022-11-27T00:43:43.551Z,8.23
2022-11-27T00:46:14.846Z,7.97
2022-11-27T00:48:43.328Z,8.47
2022-11-27T00:51:14.491Z,7.90
2022-11-27T00:53:42.687Z,17.27
2022-11-27T00:56:11.812Z,16.47
2022-11-27T00:58:39.968Z,9.63
2022-11-27T01:01:08.946Z,10.10
2022-11-27T01:03:38.506Z,6.90
2022-11-27T01:06:08.172Z,10.33
2022-11-27T01:08:36.297Z,8.30
2022-11-27T01:11:04.508Z,12.13
2022-11-27T01:13:36.033Z,7.07
2022-11-27T01:16:06.808Z,10.40
2022-11-27T01:18:35.223Z,8.60
2022-11-27T01:21:05.725Z,14.23
2022-11-27T01:23:34.113Z,8.03
2022-11-27T01:26:02.662Z,10.70
2022-11-27T01:28:30.927Z,11.03
2022-11-27T01:30:59.388Z,8.50
2022-11-27T01:33:27.569Z,11.73
2022-11-27T01:35:56.974Z,11.43
2022-11-27T01:38:27.130Z,9.07
2022-11-27T01:40:58.888Z,9.47
2022-11-27T01:43:41.910Z,9.47
2022-11-27T01:46:30.144Z,10.23
2022-11-27T01:49:14.695Z,10.20
2022-11-27T01:51:46.155Z,8.97
2022-11-27T01:54:16.393Z,10.37
2022-11-27T01:56:46.028Z,10.27
2022-11-27T01:59:14.196Z,11.97
2022-11-27T02:01:42.323Z,9.07
2022-11-27T02:04:10.493Z,12.00
2022-11-27T02:06:38.542Z,8.20
2022-11-27T02:09:06.603Z,10.77
2022-11-27T02:11:43.758Z,12.63
2022-11-27T02:14:17.372Z,11.77
2022-11-27T02:16:49.693Z,14.47
2022-11-27T02:19:28.186Z,10.87
2022-11-27T02:22:01.336Z,13.60
2022-11-27T02:24:50.555Z,13.57
2022-11-27T02:28:04.336Z,13.63
2022-11-27T02:30:37.234Z,14.67
2022-11-27T02:33:07.742Z,10.47
2022-11-27T02:35:41.702Z,17.73
2022-11-27T02:38:14.540Z,15.60
2022-11-27T02:40:46.471Z,15.63
2022-11-27T02:43:18.268Z,12.57
2022-11-27T02:45:49.713Z,12.37
2022-11-27T02:48:21.732Z,16.27
2022-11-27T02:50:50.425Z,16.13
2022-11-27T02:53:23.144Z,13.27
2022-11-27T02:55:53.128Z,17.20
2022-11-27T02:58:23.563Z,16.30
2022-11-27T03:00:54.793Z,13.60
2022-11-27T03:03:25.339Z,18.07
2022-11-27T03:05:55.999Z,19.50
2022-11-27T03:08:27.012Z,15.47
2022-11-27T03:10:59.485Z,18.93
2022-11-27T03:13:28.182Z,14.57
2022-11-27T03:16:04.882Z,16.87
2022-11-27T03:18:39.746Z,17.13
2022-11-27T03:21:14.179Z,17.77
2022-11-27T03:23:42.390Z,15.77
2022-11-27T03:26:10.657Z,16.20
2022-11-27T03:28:38.953Z,18.33
2022-11-27T03:31:08.505Z,17.80
2022-11-27T03:33:36.597Z,16.17
2022-11-27T03:36:12.805Z,18.93
2022-11-27T03:38:41.036Z,15.53
2022-11-27T03:41:15.658Z,14.93
2022-11-27T03:43:47.674Z,18.50
2022-11-27T03:46:23.298Z,16.43
2022-11-27T03:49:00.273Z,18.87
2022-11-27T03:51:35.194Z,14.40
2022-11-27T03:54:06.864Z,17.97
2022-11-27T03:56:38.108Z,19.80
2022-11-27T03:59:09.370Z,16.77
2022-11-27T04:01:38.964Z,18.63
2022-11-27T04:04:07.267Z,16.10
2022-11-27T04:06:35.538Z,17.73
2022-11-27T04:09:03.668Z,15.40
2022-11-27T04:11:31.897Z,15.80
2022-11-27T04:14:00.458Z,15.50
2022-11-27T04:16:28.826Z,16.83
2022-11-27T04:18:58.539Z,15.20
2022-11-27T04:21:26.720Z,17.17
2022-11-27T04:23:54.874Z,15.70
2022-11-27T04:26:23.623Z,15.87
2022-11-27T04:28:51.711Z,14.87
2022-11-27T04:31:20.006Z,14.43
2022-11-27T04:33:48.145Z,17.63
2022-11-27T04:36:17.625Z,14.10
2022-11-27T04:38:45.794Z,13.23
2022-11-27T04:41:13.824Z,14.63
2022-11-27T04:43:41.978Z,13.47
2022-11-27T04:46:10.165Z,13.87
2022-11-27T04:48:38.265Z,11.40
2022-11-27T04:51:06.690Z,12.27
2022-11-27T04:53:36.387Z,16.67
2022-11-27T04:56:04.849Z,12.67
2022-11-27T04:58:33.053Z,13.53
2022-11-27T05:01:01.450Z,13.93
2022-11-27T05:03:29.655Z,14.80
2022-11-27T05:05:58.408Z,16.10
2022-11-27T05:08:26.810Z,9.70
2022-11-27T05:11:03.998Z,11.03
2022-11-27T05:13:32.418Z,15.00
2022-11-27T05:16:00.601Z,11.67
2022-11-27T05:18:28.828Z,13.67
2022-11-27T05:20:59.019Z,11.87
2022-11-27T05:23:27.207Z,10.47
2022-11-27T05:25:55.498Z,12.37
2022-11-27T05:28:27.076Z,11.30
2022-11-27T05:30:55.411Z,12.50
2022-11-27T05:33:23.698Z,12.30
2022-11-27T05:35:51.758Z,12.03
2022-11-27T05:38:19.925Z,8.60
2022-11-27T05:40:48.046Z,10.37
2022-11-27T05:43:16.231Z,9.47
2022-11-27T05:45:45.723Z,9.67
2022-11-27T05:48:13.998Z,8.60
2022-11-27T05:50:42.168Z,11.57
2022-11-27T05:53:10.399Z,9.87
2022-11-27T05:55:38.842Z,9.20
2022-11-27T05:58:07.154Z,11.97
2022-11-27T06:00:35.395Z,9.97
2022-11-27T06:03:05.181Z,9.53
2022-11-27T06:05:33.450Z,13.27
2022-11-27T06:08:01.489Z,8.97
2022-11-27T06:10:29.443Z,7.53
2022-11-27T06:12:57.546Z,9.30
2022-11-27T06:15:25.646Z,10.23
2022-11-27T06:17:53.864Z,8.47
2022-11-27T06:20:23.886Z,10.77
2022-11-27T06:22:52.214Z,10.17
2022-11-27T06:25:20.385Z,6.57
2022-11-27T06:27:48.488Z,7.60
2022-11-27T06:30:17.197Z,8.87
2022-11-27T06:32:45.280Z,9.97
2022-11-27T06:35:13.398Z,8.23
2022-11-27T06:37:42.927Z,7.97
2022-11-27T06:40:11.796Z,8.37
2022-11-27T06:42:39.933Z,7.90
2022-11-27T06:45:09.064Z,9.23
2022-11-27T06:47:37.173Z,6.77
2022-11-27T06:50:05.890Z,8.13
2022-11-27T06:52:39.960Z,9.00
2022-11-27T06:55:10.600Z,7.10
2022-11-27T06:57:38.797Z,7.63
2022-11-27T07:00:08.345Z,7.97
2022-11-27T07:02:36.506Z,8.23
2022-11-27T07:05:04.994Z,7.87
2022-11-27T07:07:33.027Z,8.47
2022-11-27T07:10:01.248Z,6.17
2022-11-27T07:12:30.646Z,8.50
2022-11-27T07:15:02.854Z,5.07
2022-11-27T07:17:32.142Z,7.33
2022-11-27T07:20:00.201Z,7.83
2022-11-27T07:22:28.369Z,10.20
2022-11-27T07:24:56.581Z,6.40
2022-11-27T07:27:24.679Z,8.60
2022-11-27T07:29:54.263Z,5.40
2022-11-27T07:32:22.368Z,7.77
2022-11-27T07:34:50.653Z,5.57
2022-11-27T07:37:18.793Z,7.93
2022-11-27T07:40:02.098Z,6.93
2022-11-27T07:42:37.915Z,7.20
2022-11-27T07:45:08.956Z,9.07
2022-11-27T07:47:38.666Z,7.43
2022-11-27T07:50:08.334Z,6.10
2022-11-27T07:52:41.027Z,7.50
2022-11-27T07:55:09.975Z,7.53
2022-11-27T07:57:38.302Z,6.43
2022-11-27T08:00:09.843Z,6.77
2022-11-27T08:02:37.995Z,6.20
2022-11-27T08:05:12.140Z,7.40
2022-11-27T08:07:40.880Z,7.27
2022-11-27T08:10:09.759Z,5.07
2022-11-27T08:12:37.981Z,6.17
2022-11-27T08:15:08.890Z,6.77
2022-11-27T08:17:37.164Z,7.57
2022-11-27T08:20:06.354Z,7.00
2022-11-27T08:22:34.583Z,6.50
2022-11-27T08:25:02.700Z,7.73
2022-11-27T08:27:32.441Z,8.90
2022-11-27T08:30:00.599Z,5.93
2022-11-27T08:32:30.161Z,5.67
2022-11-27T08:34:58.243Z,6.83
2022-11-27T08:37:26.368Z,9.40
2022-11-27T08:39:54.705Z,7.37
2022-11-27T08:42:22.809Z,5.80
2022-11-27T08:44:50.873Z,7.33
2022-11-27T08:47:19.011Z,6.00
2022-11-27T08:49:48.716Z,6.20
2022-11-27T08:52:17.229Z,6.70
2022-11-27T08:54:45.424Z,5.53
2022-11-27T08:57:13.564Z,7.20
2022-11-27T08:59:41.642Z,6.27
2022-11-27T09:02:12.565Z,6.10
2022-11-27T09:04:40.943Z,8.03
2022-11-27T09:07:14.223Z,4.53
2022-11-27T09:09:42.705Z,7.37
2022-11-27T09:12:10.827Z,5.07
2022-11-27T09:14:39.429Z,6.80
2022-11-27T09:17:07.912Z,6.20
2022-11-27T09:19:36.044Z,6.77
2022-11-27T09:22:04.243Z,8.83
2022-11-27T09:24:33.814Z,6.73
2022-11-27T09:27:02.902Z,6.40
2022-11-27T09:29:30.982Z,6.53
2022-11-27T09:31:59.068Z,7.50
2022-11-27T09:34:27.597Z,7.57
2022-11-27T09:36:55.803Z,5.93
2022-11-27T09:39:26.547Z,6.20
2022-11-27T09:41:57.410Z,8.77
2022-11-27T09:44:33.106Z,6.63
2022-11-27T09:47:06.143Z,8.23
2022-11-27T09:49:37.896Z,5.43
2022-11-27T09:52:08.706Z,6.90
2022-11-27T09:54:39.275Z,9.40
2022-11-27T09:57:12.505Z,7.00
2022-11-27T09:59:44.275Z,6.57
2022-11-27T10:02:19.039Z,6.80
2022-11-27T10:05:12.500Z,8.40
2022-11-27T10:07:46.416Z,7.13
2022-11-27T10:10:26.578Z,8.00
2022-11-27T10:13:03.186Z,8.93
2022-11-27T10:15:38.720Z,7.60
2022-11-27T10:18:11.836Z,7.53
2022-11-27T10:20:44.706Z,8.00
2022-11-27T10:23:22.151Z,9.30
2022-11-27T10:25:51.922Z,6.40
2022-11-27T10:28:29.397Z,7.87
2022-11-27T10:31:02.359Z,6.90
2022-11-27T10:33:38.510Z,7.60
2022-11-27T10:36:09.617Z,6.20
2022-11-27T10:38:40.555Z,6.57
2022-11-27T10:41:34.313Z,5.77
2022-11-27T10:44:13.060Z,12.57
2022-11-27T10:46:41.580Z,8.40
2022-11-27T10:49:10.629Z,8.40
2022-11-27T10:51:40.220Z,6.33
2022-11-27T10:54:13.777Z,10.73
2022-11-27T10:56:56.693Z,9.93
2022-11-27T10:59:33.204Z,9.07
2022-11-27T11:02:05.678Z,11.63
2022-11-27T11:04:38.275Z,9.10
2022-11-27T11:07:25.800Z,8.07
2022-11-27T11:09:54.939Z,7.77
2022-11-27T11:12:28.308Z,8.27
2022-11-27T11:15:00.313Z,7.27
2022-11-27T11:17:29.967Z,7.37
2022-11-27T11:20:01.086Z,7.63
2022-11-27T11:22:29.817Z,8.03
2022-11-27T11:25:00.706Z,10.43
2022-11-27T11:27:32.268Z,8.00
2022-11-27T11:30:06.051Z,8.73
2022-11-27T11:32:38.043Z,11.67
2022-11-27T11:35:13.767Z,10.23
2022-11-27T11:37:43.343Z,7.03
2022-11-27T11:40:25.033Z,8.43
2022-11-27T11:42:55.115Z,5.80
2022-11-27T11:45:27.505Z,9.10
2022-11-27T11:48:01.094Z,9.30
2022-11-27T11:50:34.065Z,6.87
2022-11-27T11:53:06.917Z,10.80
2022-11-27T11:55:37.775Z,8.83
2022-11-27T11:58:28.988Z,7.83
2022-11-27T12:01:25.959Z,9.00
2022-11-27T12:04:01.590Z,8.63
2022-11-27T12:06:39.393Z,9.40
2022-11-27T12:09:31.073Z,7.33
2022-11-27T12:12:02.031Z,7.50
2022-11-27T12:14:41.603Z,7.60
2022-11-27T12:17:28.210Z,8.90
2022-11-27T12:20:18.251Z,8.47
2022-11-27T12:23:22.110Z,10.47
2022-11-27T12:25:56.099Z,7.57
2022-11-27T12:28:39.108Z,9.10
2022-11-27T12:31:12.517Z,7.17
2022-11-27T12:33:52.716Z,7.03
2022-11-27T12:36:24.720Z,8.67
2022-11-27T12:39:25.885Z,7.03
2022-11-27T12:42:02.828Z,6.30
2022-11-27T12:44:39.941Z,7.67
2022-11-27T12:47:11.979Z,8.80
2022-11-27T12:49:43.244Z,7.53
2022-11-27T12:55:12.508Z,6.27
2022-11-27T12:57:42.183Z,6.00
2022-11-27T13:00:17.901Z,7.07
2022-11-27T13:02:54.435Z,7.53
2022-11-27T13:05:26.356Z,8.00
2022-11-27T13:07:57.910Z,5.80
2022-11-27T13:10:29.411Z,6.77
2022-11-27T13:13:03.738Z,7.80
2022-11-27T13:15:35.451Z,7.57
2022-11-27T13:18:10.791Z,7.87
2022-11-27T13:20:41.681Z,7.27
2022-11-27T13:23:10.141Z,7.40
2022-11-27T13:25:47.005Z,6.93
2022-11-27T13:28:23.504Z,7.30
2022-11-27T13:30:56.478Z,5.23
2022-11-27T13:33:36.871Z,6.07
2022-11-27T13:36:09.042Z,6.47
2022-11-27T13:38:41.924Z,5.93
2022-11-27T13:41:10.247Z,6.23
2022-11-27T13:43:43.378Z,5.20
2022-11-27T13:46:16.612Z,7.63
2022-11-27T13:48:49.887Z,6.07
2022-11-27T13:51:28.742Z,6.47
2022-11-27T13:54:09.165Z,5.88
2022-11-27T13:56:39.317Z,6.73
2022-11-27T13:59:18.324Z,6.37
2022-11-27T14:01:59.820Z,6.00
2022-11-27T14:04:29.148Z,6.00
2022-11-27T14:07:03.286Z,6.97
2022-11-27T14:09:41.075Z,7.37
2022-11-27T14:12:23.161Z,5.93
2022-11-27T14:15:04.794Z,4.90
2022-11-27T14:17:39.815Z,9.70
2022-11-27T14:20:27.105Z,6.50
2022-11-27T14:23:12.487Z,7.63
2022-11-27T14:25:45.016Z,7.27
2022-11-27T14:28:17.058Z,5.70
2022-11-27T14:30:48.909Z,5.33
2022-11-27T14:33:19.343Z,8.47
2022-11-27T14:35:50.371Z,7.77
2022-11-27T14:38:20.265Z,7.83
2022-11-27T14:40:49.733Z,8.47
2022-11-27T14:43:19.303Z,5.83
2022-11-27T14:45:50.201Z,6.17
2022-11-27T14:48:21.520Z,9.03
2022-11-27T14:50:51.130Z,5.67
2022-11-27T14:53:24.038Z,7.77
2022-11-27T14:55:54.769Z,7.00
2022-11-27T14:58:25.670Z,7.80
2022-11-27T15:00:57.660Z,6.73
2022-11-27T15:03:27.146Z,6.17
2022-11-27T15:05:58.462Z,7.67
2022-11-27T15:08:33.588Z,7.97
2022-11-27T15:11:02.464Z,8.10
2022-11-27T15:13:32.835Z,7.30
2022-11-27T15:16:04.300Z,8.63
2022-11-27T15:18:34.886Z,6.50
2022-11-27T15:21:04.164Z,9.10
2022-11-27T15:23:35.525Z,7.63
2022-11-27T15:26:16.007Z,8.33
2022-11-27T15:28:53.142Z,10.30
2022-11-27T15:31:30.490Z,6.40
2022-11-27T15:34:04.565Z,7.47
2022-11-27T15:36:38.904Z,8.50
2022-11-27T15:39:18.853Z,9.63
2022-11-27T15:41:56.007Z,5.83
2022-11-27T15:44:25.332Z,5.90
2022-11-27T15:46:54.607Z,7.70
2022-11-27T15:49:23.526Z,6.80
2022-11-27T15:51:51.698Z,7.40
2022-11-27T15:54:21.322Z,8.63
2022-11-27T15:56:49.629Z,8.43
2022-11-27T15:59:20.893Z,7.77
2022-11-27T16:01:50.130Z,8.53
2022-11-27T16:04:18.556Z,6.87
2022-11-27T16:06:46.788Z,8.53
2022-11-27T16:09:15.012Z,6.23
2022-11-27T16:11:44.572Z,6.70
2022-11-27T16:14:12.968Z,7.67
2022-11-27T16:16:41.540Z,7.67
2022-11-27T16:19:12.171Z,8.57
2022-11-27T16:21:40.369Z,8.97
2022-11-27T16:24:11.551Z,9.33
2022-11-27T16:26:40.026Z,8.07
2022-11-27T16:29:10.607Z,8.13
2022-11-27T16:31:38.874Z,6.97
2022-11-27T16:34:09.155Z,8.50
2022-11-27T16:36:42.103Z,9.57
2022-11-27T16:39:10.607Z,9.07
2022-11-27T16:41:40.189Z,9.07
2022-11-27T16:44:12.711Z,8.73
2022-11-27T16:46:41.435Z,10.47
2022-11-27T16:49:09.990Z,9.00
2022-11-27T16:51:39.302Z,7.33
2022-11-27T16:54:11.714Z,6.83
2022-11-27T16:56:42.189Z,7.50
2022-11-27T16:59:13.991Z,12.30
2022-11-27T17:01:43.012Z,8.27
2022-11-27T17:04:16.572Z,8.70
2022-11-27T17:06:44.680Z,10.20
2022-11-27T17:09:12.967Z,9.40
2022-11-27T17:11:44.558Z,8.43
2022-11-27T17:14:14.369Z,8.43
2022-11-27T17:16:42.845Z,9.50
2022-11-27T17:19:13.594Z,8.77
2022-11-27T17:21:43.885Z,9.40
2022-11-27T17:24:15.906Z,10.30
2022-11-27T17:26:49.766Z,9.13
2022-11-27T17:29:21.941Z,7.57
2022-11-27T17:31:52.171Z,8.47
2022-11-27T17:34:21.720Z,9.27
2022-11-27T17:36:53.856Z,9.30
2022-11-27T17:39:22.745Z,12.37
2022-11-27T17:41:51.216Z,8.50
2022-11-27T17:44:21.234Z,7.93
2022-11-27T17:46:50.707Z,8.00
2022-11-27T17:49:22.059Z,8.37
2022-11-27T17:51:51.568Z,9.80
2022-11-27T17:54:20.916Z,12.37
2022-11-27T17:56:51.470Z,10.13
2022-11-27T17:59:24.738Z,9.47
2022-11-27T18:01:53.275Z,11.07
2022-11-27T18:04:22.114Z,10.57
2022-11-27T18:06:50.803Z,9.77
2022-11-27T18:09:19.106Z,10.27
2022-11-27T18:11:50.152Z,9.73
2022-11-27T18:14:31.398Z,9.90
2022-11-27T18:17:14.874Z,11.53
2022-11-27T18:19:45.636Z,10.20
2022-11-27T18:22:14.590Z,12.27
2022-11-27T18:24:46.588Z,11.90
2022-11-27T18:27:52.427Z,12.77
2022-11-27T18:33:07.390Z,11.97
2022-11-27T18:35:47.492Z,12.93
2022-11-27T18:38:17.266Z,13.13
2022-11-27T18:40:48.926Z,11.47
2022-11-27T18:43:20.671Z,13.73
2022-11-27T18:45:52.886Z,11.80
2022-11-27T18:48:22.349Z,12.40
2022-11-27T18:50:54.104Z,11.07
2022-11-27T18:53:22.589Z,13.00
2022-11-27T18:55:57.478Z,13.10
2022-11-27T18:58:26.402Z,11.10
2022-11-27T19:00:57.600Z,12.87
2022-11-27T19:03:27.076Z,10.47
2022-11-27T19:05:55.869Z,11.87
2022-11-27T19:08:24.126Z,11.17
2022-11-27T19:10:52.917Z,14.87
2022-11-27T19:13:21.264Z,11.10
2022-11-27T19:15:50.549Z,10.73
2022-11-27T19:18:20.323Z,11.30
2022-11-27T19:20:48.935Z,11.40
2022-11-27T19:23:18.496Z,10.77
2022-11-27T19:25:50.208Z,11.50
2022-11-27T19:28:22.105Z,12.60
2022-11-27T19:30:53.412Z,12.93
2022-11-27T19:33:30.142Z,11.23
2022-11-27T19:36:01.145Z,12.97
2022-11-27T19:38:29.549Z,10.30
2022-11-27T19:40:58.147Z,11.20
2022-11-27T19:43:26.637Z,13.33
2022-11-27T19:45:55.017Z,11.13
2022-11-27T19:48:24.931Z,12.10
2022-11-27T19:50:55.496Z,9.90
2022-11-27T19:53:24.532Z,11.23
2022-11-27T19:55:56.070Z,12.00
2022-11-27T19:58:24.731Z,9.73
2022-11-27T20:00:54.294Z,8.97
2022-11-27T20:03:24.549Z,10.03
2022-11-27T20:06:03.298Z,9.77
2022-11-27T20:08:32.038Z,8.77
2022-11-27T20:11:03.584Z,10.37
2022-11-27T20:13:32.457Z,8.97
2022-11-27T20:16:00.808Z,9.83
2022-11-27T20:18:31.220Z,9.50
2022-11-27T20:21:05.993Z,9.53
2022-11-27T20:23:36.555Z,9.03
2022-11-27T20:26:07.220Z,10.40
2022-11-27T20:28:36.534Z,7.20
2022-11-27T20:31:05.541Z,8.40
2022-11-27T20:33:36.047Z,9.00
2022-11-27T20:36:06.448Z,9.20
2022-11-27T20:38:34.599Z,9.03
2022-11-27T20:41:07.108Z,7.03
2022-11-27T20:43:36.062Z,10.10
2022-11-27T20:46:07.943Z,8.67
2022-11-27T20:48:39.399Z,7.50
2022-11-27T20:51:09.946Z,9.67
2022-11-27T20:53:40.891Z,7.63
2022-11-27T20:56:11.597Z,7.80
2022-11-27T20:58:41.444Z,7.57
2022-11-27T21:01:15.301Z,7.47
2022-11-27T21:03:46.423Z,7.03
2022-11-27T21:06:15.565Z,6.80
2022-11-27T21:08:44.834Z,7.33
2022-11-27T21:11:18.645Z,9.40
2022-11-27T21:13:47.017Z,6.43
2022-11-27T21:16:15.821Z,6.70
2022-11-27T21:18:46.266Z,8.73
2022-11-27T21:21:16.839Z,8.10
2022-11-27T21:23:45.011Z,8.07
2022-11-27T21:26:16.322Z,6.17
2022-11-27T21:28:45.080Z,6.27
2022-11-27T21:31:17.907Z,7.27
2022-11-27T21:33:52.532Z,7.27
2022-11-27T21:36:23.390Z,6.13
2022-11-27T21:38:52.015Z,6.73
2022-11-27T21:41:20.763Z,6.50
2022-11-27T21:43:50.330Z,7.03
2022-11-27T21:46:22.501Z,7.07
2022-11-27T21:48:53.304Z,6.40
2022-11-27T21:51:23.073Z,7.27
2022-11-27T21:53:53.175Z,6.87
2022-11-27T21:56:25.159Z,7.67
2022-11-27T21:58:56.533Z,7.80
2022-11-27T22:01:26.251Z,7.47
2022-11-27T22:03:57.429Z,7.30
2022-11-27T22:06:29.443Z,8.13
2022-11-27T22:09:03.643Z,6.87
2022-11-27T22:11:31.748Z,6.87
2022-11-27T22:14:01.713Z,6.60
2022-11-27T22:16:31.490Z,6.43
2022-11-27T22:19:01.927Z,7.77
2022-11-27T22:21:32.183Z,8.20
2022-11-27T22:24:01.293Z,6.97
2022-11-27T22:26:30.831Z,6.27
2022-11-27T22:29:00.547Z,8.07
2022-11-27T22:31:31.326Z,9.00
2022-11-27T22:34:04.247Z,8.83
2022-11-27T22:36:34.520Z,7.37
2022-11-27T22:39:05.896Z,6.93
2022-11-27T22:41:36.843Z,7.87
2022-11-27T22:44:06.911Z,6.80
2022-11-27T22:46:36.662Z,6.97
2022-11-27T22:49:11.955Z,7.33
2022-11-27T22:51:40.511Z,6.37
2022-11-27T22:54:11.073Z,7.63
2022-11-27T22:56:40.203Z,6.53
2022-11-27T22:59:41.424Z,7.17
2022-11-27T23:01:59.701Z,8.27
2022-11-27T23:04:32.329Z,6.33
2022-11-27T23:07:00.549Z,8.00
2022-11-27T23:09:30.156Z,7.60
2022-11-27T23:11:58.786Z,5.97
2022-11-27T23:14:28.038Z,7.90
2022-11-27T23:16:56.326Z,7.40
2022-11-27T23:19:24.482Z,6.53
2022-11-27T23:21:53.879Z,6.50
2022-11-27T23:24:21.994Z,8.83
2022-11-27T23:26:50.409Z,8.43
2022-11-27T23:29:18.735Z,7.03
2022-11-27T23:31:46.926Z,11.43
2022-11-27T23:34:16.497Z,6.50
2022-11-27T23:36:45.233Z,8.40
2022-11-27T23:39:16.656Z,7.67
2022-11-27T23:41:49.680Z,8.90
2022-11-27T23:44:17.867Z,7.03
2022-11-27T23:46:46.056Z,6.87
2022-11-27T23:49:14.267Z,8.93
2022-11-27T23:51:42.410Z,9.00
2022-11-27T23:54:11.761Z,7.50
2022-11-27T23:56:42.548Z,7.60
2022-11-27T23:59:11.227Z,7.23
